sensor_id;sensor_type;location;lat;lon;timestamp;temperature;humidity
25512;DHT22;13414;44.534;18.700;2023-04-06T00:01:33;3.10;99.90
25512;DHT22;13414;44.534;18.700;2023-04-06T00:04:01;3.10;99.90
25512;DHT22;13414;44.534;18.700;2023-04-06T00:06:29;3.10;99.90
25512;DHT22;13414;44.534;18.700;2023-04-06T00:08:56;3.10;99.90
25512;DHT22;13414;44.534;18.700;2023-04-06T00:11:25;3.00;99.90
25512;DHT22;13414;44.534;18.700;2023-04-06T00:13:53;2.90;99.90
25512;DHT22;13414;44.534;18.700;2023-04-06T00:16:20;3.00;99.90
25512;DHT22;13414;44.534;18.700;2023-04-06T00:18:48;3.00;99.90
25512;DHT22;13414;44.534;18.700;2023-04-06T00:21:15;3.00;99.90
25512;DHT22;13414;44.534;18.700;2023-04-06T00:23:42;3.00;99.90
25512;DHT22;13414;44.534;18.700;2023-04-06T00:26:10;2.80;99.90
25512;DHT22;13414;44.534;18.700;2023-04-06T00:28:43;2.80;99.90
25512;DHT22;13414;44.534;18.700;2023-04-06T00:31:11;2.70;99.90
25512;DHT22;13414;44.534;18.700;2023-04-06T00:33:38;2.70;99.90
25512;DHT22;13414;44.534;18.700;2023-04-06T00:36:06;2.80;99.90
25512;DHT22;13414;44.534;18.700;2023-04-06T00:38:34;2.70;99.90
25512;DHT22;13414;44.534;18.700;2023-04-06T00:41:02;2.70;99.90
25512;DHT22;13414;44.534;18.700;2023-04-06T00:43:31;2.70;99.90
25512;DHT22;13414;44.534;18.700;2023-04-06T00:46:00;2.70;99.90
25512;DHT22;13414;44.534;18.700;2023-04-06T00:48:27;2.70;99.90
25512;DHT22;13414;44.534;18.700;2023-04-06T00:50:57;2.70;99.90
25512;DHT22;13414;44.534;18.700;2023-04-06T00:53:25;2.70;99.90
25512;DHT22;13414;44.534;18.700;2023-04-06T00:55:53;2.80;99.90
25512;DHT22;13414;44.534;18.700;2023-04-06T00:58:22;2.70;99.90
25512;DHT22;13414;44.534;18.700;2023-04-06T01:00:55;2.80;99.90
25512;DHT22;13414;44.534;18.700;2023-04-06T01:03:24;2.80;99.90
25512;DHT22;13414;44.534;18.700;2023-04-06T01:05:53;2.80;99.90
25512;DHT22;13414;44.534;18.700;2023-04-06T01:08:29;2.80;99.90
25512;DHT22;13414;44.534;18.700;2023-04-06T01:11:10;2.80;99.90
25512;DHT22;13414;44.534;18.700;2023-04-06T01:13:38;2.70;99.90
25512;DHT22;13414;44.534;18.700;2023-04-06T01:16:10;2.70;99.90
25512;DHT22;13414;44.534;18.700;2023-04-06T01:19:04;2.70;99.90
25512;DHT22;13414;44.534;18.700;2023-04-06T01:21:33;2.80;99.90
25512;DHT22;13414;44.534;18.700;2023-04-06T01:24:29;2.80;99.90
25512;DHT22;13414;44.534;18.700;2023-04-06T01:27:02;2.80;99.90
25512;DHT22;13414;44.534;18.700;2023-04-06T01:29:53;2.80;99.90
25512;DHT22;13414;44.534;18.700;2023-04-06T01:32:49;2.90;99.90
25512;DHT22;13414;44.534;18.700;2023-04-06T01:35:28;2.90;99.90
25512;DHT22;13414;44.534;18.700;2023-04-06T01:38:07;2.90;99.90
25512;DHT22;13414;44.534;18.700;2023-04-06T01:40:37;2.90;99.90
25512;DHT22;13414;44.534;18.700;2023-04-06T01:43:05;2.80;99.90
25512;DHT22;13414;44.534;18.700;2023-04-06T01:45:41;2.70;99.90
25512;DHT22;13414;44.534;18.700;2023-04-06T01:48:20;2.70;99.90
25512;DHT22;13414;44.534;18.700;2023-04-06T01:50:48;2.70;99.90
25512;DHT22;13414;44.534;18.700;2023-04-06T01:53:22;2.70;99.90
25512;DHT22;13414;44.534;18.700;2023-04-06T01:55:54;2.70;99.90
25512;DHT22;13414;44.534;18.700;2023-04-06T01:58:27;2.60;99.90
25512;DHT22;13414;44.534;18.700;2023-04-06T02:00:54;2.70;99.90
25512;DHT22;13414;44.534;18.700;2023-04-06T02:03:27;2.70;99.90
25512;DHT22;13414;44.534;18.700;2023-04-06T02:06:03;2.80;99.90
25512;DHT22;13414;44.534;18.700;2023-04-06T02:08:37;2.80;99.90
25512;DHT22;13414;44.534;18.700;2023-04-06T02:11:06;2.80;99.90
25512;DHT22;13414;44.534;18.700;2023-04-06T02:13:40;2.80;99.90
25512;DHT22;13414;44.534;18.700;2023-04-06T02:16:09;2.80;99.90
25512;DHT22;13414;44.534;18.700;2023-04-06T02:18:37;2.80;99.90
25512;DHT22;13414;44.534;18.700;2023-04-06T02:21:04;2.80;99.90
25512;DHT22;13414;44.534;18.700;2023-04-06T02:23:32;2.90;99.90
25512;DHT22;13414;44.534;18.700;2023-04-06T02:26:00;2.80;99.90
25512;DHT22;13414;44.534;18.700;2023-04-06T02:28:29;2.80;99.90
25512;DHT22;13414;44.534;18.700;2023-04-06T02:30:57;2.90;99.90
25512;DHT22;13414;44.534;18.700;2023-04-06T02:33:26;2.90;99.90
25512;DHT22;13414;44.534;18.700;2023-04-06T02:35:54;2.90;99.90
25512;DHT22;13414;44.534;18.700;2023-04-06T02:38:22;2.90;99.90
25512;DHT22;13414;44.534;18.700;2023-04-06T02:40:51;2.80;99.90
25512;DHT22;13414;44.534;18.700;2023-04-06T02:43:24;2.70;99.90
25512;DHT22;13414;44.534;18.700;2023-04-06T02:46:01;2.60;99.90
25512;DHT22;13414;44.534;18.700;2023-04-06T02:48:32;2.60;99.90
25512;DHT22;13414;44.534;18.700;2023-04-06T02:51:02;2.60;99.90
25512;DHT22;13414;44.534;18.700;2023-04-06T02:53:30;2.60;99.90
25512;DHT22;13414;44.534;18.700;2023-04-06T02:55:57;2.60;99.90
25512;DHT22;13414;44.534;18.700;2023-04-06T02:58:32;2.60;99.90
25512;DHT22;13414;44.534;18.700;2023-04-06T03:01:01;2.50;99.90
25512;DHT22;13414;44.534;18.700;2023-04-06T03:03:29;2.50;99.90
25512;DHT22;13414;44.534;18.700;2023-04-06T03:05:57;2.50;99.90
25512;DHT22;13414;44.534;18.700;2023-04-06T03:08:29;2.50;99.90
25512;DHT22;13414;44.534;18.700;2023-04-06T03:10:57;2.50;99.90
25512;DHT22;13414;44.534;18.700;2023-04-06T03:13:33;2.50;99.90
25512;DHT22;13414;44.534;18.700;2023-04-06T03:16:01;2.50;99.90
25512;DHT22;13414;44.534;18.700;2023-04-06T03:18:29;2.50;99.90
25512;DHT22;13414;44.534;18.700;2023-04-06T03:20:57;2.40;99.90
25512;DHT22;13414;44.534;18.700;2023-04-06T03:23:33;2.40;99.90
25512;DHT22;13414;44.534;18.700;2023-04-06T03:26:02;2.30;99.90
25512;DHT22;13414;44.534;18.700;2023-04-06T03:28:30;2.30;99.90
25512;DHT22;13414;44.534;18.700;2023-04-06T03:31:03;2.40;99.90
25512;DHT22;13414;44.534;18.700;2023-04-06T03:33:44;2.40;99.90
25512;DHT22;13414;44.534;18.700;2023-04-06T03:36:21;2.40;99.90
25512;DHT22;13414;44.534;18.700;2023-04-06T03:38:48;2.30;99.90
25512;DHT22;13414;44.534;18.700;2023-04-06T03:41:16;2.30;99.90
25512;DHT22;13414;44.534;18.700;2023-04-06T03:43:50;2.30;99.90
25512;DHT22;13414;44.534;18.700;2023-04-06T03:46:19;2.20;99.90
25512;DHT22;13414;44.534;18.700;2023-04-06T03:48:50;2.20;99.90
25512;DHT22;13414;44.534;18.700;2023-04-06T03:51:20;2.20;99.90
25512;DHT22;13414;44.534;18.700;2023-04-06T03:53:48;2.20;99.90
25512;DHT22;13414;44.534;18.700;2023-04-06T03:56:15;2.20;99.90
25512;DHT22;13414;44.534;18.700;2023-04-06T03:58:42;2.20;99.90
25512;DHT22;13414;44.534;18.700;2023-04-06T04:01:11;2.20;99.90
25512;DHT22;13414;44.534;18.700;2023-04-06T04:03:39;2.20;99.90
25512;DHT22;13414;44.534;18.700;2023-04-06T04:06:07;2.10;99.90
25512;DHT22;13414;44.534;18.700;2023-04-06T04:08:34;2.10;99.90
25512;DHT22;13414;44.534;18.700;2023-04-06T04:11:02;2.10;99.90
25512;DHT22;13414;44.534;18.700;2023-04-06T04:13:29;2.00;99.90
25512;DHT22;13414;44.534;18.700;2023-04-06T04:15:57;1.90;99.90
25512;DHT22;13414;44.534;18.700;2023-04-06T04:18:26;1.90;99.90
25512;DHT22;13414;44.534;18.700;2023-04-06T04:20:54;2.00;99.90
25512;DHT22;13414;44.534;18.700;2023-04-06T04:23:23;2.00;99.90
25512;DHT22;13414;44.534;18.700;2023-04-06T04:25:50;2.00;99.90
25512;DHT22;13414;44.534;18.700;2023-04-06T04:28:18;2.10;99.90
25512;DHT22;13414;44.534;18.700;2023-04-06T04:30:46;2.20;99.90
25512;DHT22;13414;44.534;18.700;2023-04-06T04:33:14;2.20;99.90
25512;DHT22;13414;44.534;18.700;2023-04-06T04:35:42;2.20;99.90
25512;DHT22;13414;44.534;18.700;2023-04-06T04:38:15;2.20;99.90
25512;DHT22;13414;44.534;18.700;2023-04-06T04:40:46;2.30;99.90
25512;DHT22;13414;44.534;18.700;2023-04-06T04:43:13;2.30;99.90
25512;DHT22;13414;44.534;18.700;2023-04-06T04:45:41;2.30;99.90
25512;DHT22;13414;44.534;18.700;2023-04-06T04:48:24;2.40;99.90
25512;DHT22;13414;44.534;18.700;2023-04-06T04:50:57;2.40;99.90
25512;DHT22;13414;44.534;18.700;2023-04-06T04:53:31;2.50;99.90
25512;DHT22;13414;44.534;18.700;2023-04-06T04:56:06;2.50;99.90
25512;DHT22;13414;44.534;18.700;2023-04-06T04:58:34;2.60;99.90
25512;DHT22;13414;44.534;18.700;2023-04-06T05:01:02;2.70;99.90
25512;DHT22;13414;44.534;18.700;2023-04-06T05:03:32;2.60;99.90
25512;DHT22;13414;44.534;18.700;2023-04-06T05:06:04;2.70;99.90
25512;DHT22;13414;44.534;18.700;2023-04-06T05:08:36;2.80;99.90
25512;DHT22;13414;44.534;18.700;2023-04-06T05:11:05;2.90;99.90
25512;DHT22;13414;44.534;18.700;2023-04-06T05:13:37;3.10;99.90
25512;DHT22;13414;44.534;18.700;2023-04-06T05:16:11;3.20;99.90
25512;DHT22;13414;44.534;18.700;2023-04-06T05:18:38;3.20;99.90
25512;DHT22;13414;44.534;18.700;2023-04-06T05:21:07;3.30;99.90
25512;DHT22;13414;44.534;18.700;2023-04-06T05:23:56;3.40;99.90
25512;DHT22;13414;44.534;18.700;2023-04-06T05:26:24;3.70;99.90
25512;DHT22;13414;44.534;18.700;2023-04-06T05:28:55;3.90;99.90
25512;DHT22;13414;44.534;18.700;2023-04-06T05:31:25;3.90;99.90
25512;DHT22;13414;44.534;18.700;2023-04-06T05:33:53;3.90;99.90
25512;DHT22;13414;44.534;18.700;2023-04-06T05:36:30;3.90;99.90
25512;DHT22;13414;44.534;18.700;2023-04-06T05:39:04;3.90;99.90
25512;DHT22;13414;44.534;18.700;2023-04-06T05:41:39;4.00;99.90
25512;DHT22;13414;44.534;18.700;2023-04-06T05:44:08;4.10;99.90
25512;DHT22;13414;44.534;18.700;2023-04-06T05:46:38;4.30;99.90
25512;DHT22;13414;44.534;18.700;2023-04-06T05:49:09;4.40;99.90
25512;DHT22;13414;44.534;18.700;2023-04-06T05:51:36;4.50;99.90
25512;DHT22;13414;44.534;18.700;2023-04-06T05:54:06;4.50;99.90
25512;DHT22;13414;44.534;18.700;2023-04-06T05:56:33;4.40;99.90
25512;DHT22;13414;44.534;18.700;2023-04-06T05:59:02;4.50;99.90
25512;DHT22;13414;44.534;18.700;2023-04-06T06:01:31;4.70;99.90
25512;DHT22;13414;44.534;18.700;2023-04-06T06:04:01;5.00;99.90
25512;DHT22;13414;44.534;18.700;2023-04-06T06:06:31;5.30;99.90
25512;DHT22;13414;44.534;18.700;2023-04-06T06:09:34;5.60;99.90
25512;DHT22;13414;44.534;18.700;2023-04-06T06:12:19;6.10;99.90
25512;DHT22;13414;44.534;18.700;2023-04-06T06:14:49;6.40;92.30
25512;DHT22;13414;44.534;18.700;2023-04-06T06:17:17;6.30;1.00
25512;DHT22;13414;44.534;18.700;2023-04-06T06:19:47;6.40;1.00
25512;DHT22;13414;44.534;18.700;2023-04-06T06:22:16;6.50;1.00
25512;DHT22;13414;44.534;18.700;2023-04-06T06:24:47;6.60;1.00
25512;DHT22;13414;44.534;18.700;2023-04-06T06:27:18;6.70;1.00
25512;DHT22;13414;44.534;18.700;2023-04-06T06:29:46;6.80;99.90
25512;DHT22;13414;44.534;18.700;2023-04-06T06:32:14;6.90;1.00
25512;DHT22;13414;44.534;18.700;2023-04-06T06:34:42;6.90;99.90
25512;DHT22;13414;44.534;18.700;2023-04-06T06:37:10;7.00;1.00
25512;DHT22;13414;44.534;18.700;2023-04-06T06:39:38;7.20;1.00
25512;DHT22;13414;44.534;18.700;2023-04-06T06:42:07;7.30;99.90
25512;DHT22;13414;44.534;18.700;2023-04-06T06:44:51;7.60;1.00
25512;DHT22;13414;44.534;18.700;2023-04-06T06:47:19;7.40;99.90
25512;DHT22;13414;44.534;18.700;2023-04-06T06:49:46;7.20;1.00
25512;DHT22;13414;44.534;18.700;2023-04-06T06:52:14;6.90;1.00
25512;DHT22;13414;44.534;18.700;2023-04-06T06:54:41;6.40;1.00
25512;DHT22;13414;44.534;18.700;2023-04-06T06:57:11;6.20;1.00
25512;DHT22;13414;44.534;18.700;2023-04-06T06:59:38;6.40;1.00
25512;DHT22;13414;44.534;18.700;2023-04-06T07:02:06;6.60;1.00
25512;DHT22;13414;44.534;18.700;2023-04-06T07:04:33;6.60;1.00
25512;DHT22;13414;44.534;18.700;2023-04-06T07:07:01;6.50;1.00
25512;DHT22;13414;44.534;18.700;2023-04-06T07:09:29;6.50;1.00
25512;DHT22;13414;44.534;18.700;2023-04-06T07:11:57;6.40;1.00
25512;DHT22;13414;44.534;18.700;2023-04-06T07:14:26;6.30;1.00
25512;DHT22;13414;44.534;18.700;2023-04-06T07:16:53;6.60;1.00
25512;DHT22;13414;44.534;18.700;2023-04-06T07:19:21;6.70;1.00
25512;DHT22;13414;44.534;18.700;2023-04-06T07:21:49;6.90;1.00
25512;DHT22;13414;44.534;18.700;2023-04-06T07:24:17;6.80;1.00
25512;DHT22;13414;44.534;18.700;2023-04-06T07:26:44;6.80;1.00
25512;DHT22;13414;44.534;18.700;2023-04-06T07:29:13;6.90;1.00
25512;DHT22;13414;44.534;18.700;2023-04-06T07:31:43;6.90;1.00
25512;DHT22;13414;44.534;18.700;2023-04-06T07:34:11;7.00;1.00
25512;DHT22;13414;44.534;18.700;2023-04-06T07:36:39;7.20;1.00
25512;DHT22;13414;44.534;18.700;2023-04-06T07:39:08;7.30;1.00
25512;DHT22;13414;44.534;18.700;2023-04-06T07:41:36;7.50;1.00
25512;DHT22;13414;44.534;18.700;2023-04-06T07:44:04;7.70;1.00
25512;DHT22;13414;44.534;18.700;2023-04-06T07:46:36;7.50;1.00
25512;DHT22;13414;44.534;18.700;2023-04-06T07:49:05;7.30;1.00
25512;DHT22;13414;44.534;18.700;2023-04-06T07:51:36;7.10;1.00
25512;DHT22;13414;44.534;18.700;2023-04-06T07:54:04;7.10;1.00
25512;DHT22;13414;44.534;18.700;2023-04-06T07:59:16;7.20;1.00
25512;DHT22;13414;44.534;18.700;2023-04-06T08:01:44;7.20;1.00
25512;DHT22;13414;44.534;18.700;2023-04-06T08:04:13;7.00;1.00
25512;DHT22;13414;44.534;18.700;2023-04-06T08:06:40;7.20;99.90
25512;DHT22;13414;44.534;18.700;2023-04-06T08:09:07;7.30;99.90
25512;DHT22;13414;44.534;18.700;2023-04-06T08:11:35;7.70;99.90
25512;DHT22;13414;44.534;18.700;2023-04-06T08:14:02;8.10;99.90
25512;DHT22;13414;44.534;18.700;2023-04-06T08:16:30;8.60;99.90
25512;DHT22;13414;44.534;18.700;2023-04-06T08:18:57;8.90;99.90
25512;DHT22;13414;44.534;18.700;2023-04-06T08:21:26;8.80;99.90
25512;DHT22;13414;44.534;18.700;2023-04-06T08:23:53;8.90;99.90
25512;DHT22;13414;44.534;18.700;2023-04-06T08:26:21;8.70;99.90
25512;DHT22;13414;44.534;18.700;2023-04-06T08:28:48;8.60;99.90
25512;DHT22;13414;44.534;18.700;2023-04-06T08:31:16;8.70;99.90
25512;DHT22;13414;44.534;18.700;2023-04-06T08:33:43;8.50;99.90
25512;DHT22;13414;44.534;18.700;2023-04-06T08:36:12;8.50;99.90
25512;DHT22;13414;44.534;18.700;2023-04-06T08:38:41;8.50;99.90
25512;DHT22;13414;44.534;18.700;2023-04-06T08:41:10;8.60;99.90
25512;DHT22;13414;44.534;18.700;2023-04-06T08:43:42;8.70;99.90
25512;DHT22;13414;44.534;18.700;2023-04-06T08:46:11;9.00;99.90
25512;DHT22;13414;44.534;18.700;2023-04-06T08:48:39;9.10;99.90
25512;DHT22;13414;44.534;18.700;2023-04-06T08:51:08;9.30;99.90
25512;DHT22;13414;44.534;18.700;2023-04-06T08:53:36;9.30;99.90
25512;DHT22;13414;44.534;18.700;2023-04-06T08:56:05;9.40;99.90
25512;DHT22;13414;44.534;18.700;2023-04-06T08:58:35;9.50;99.90
25512;DHT22;13414;44.534;18.700;2023-04-06T09:01:07;9.70;99.90
25512;DHT22;13414;44.534;18.700;2023-04-06T09:03:38;9.80;99.90
25512;DHT22;13414;44.534;18.700;2023-04-06T09:06:07;9.90;99.90
25512;DHT22;13414;44.534;18.700;2023-04-06T09:08:35;9.80;99.90
25512;DHT22;13414;44.534;18.700;2023-04-06T09:11:06;10.00;99.90
25512;DHT22;13414;44.534;18.700;2023-04-06T09:13:45;10.30;99.90
25512;DHT22;13414;44.534;18.700;2023-04-06T09:16:13;10.90;1.00
25512;DHT22;13414;44.534;18.700;2023-04-06T09:18:41;10.90;1.00
25512;DHT22;13414;44.534;18.700;2023-04-06T09:21:09;11.00;1.00
25512;DHT22;13414;44.534;18.700;2023-04-06T09:23:37;11.10;1.00
25512;DHT22;13414;44.534;18.700;2023-04-06T09:26:10;11.10;1.00
25512;DHT22;13414;44.534;18.700;2023-04-06T09:28:49;11.30;1.00
25512;DHT22;13414;44.534;18.700;2023-04-06T09:31:22;11.30;1.00
25512;DHT22;13414;44.534;18.700;2023-04-06T09:33:50;10.90;1.00
25512;DHT22;13414;44.534;18.700;2023-04-06T09:36:18;11.20;1.00
25512;DHT22;13414;44.534;18.700;2023-04-06T09:38:56;11.10;1.00
25512;DHT22;13414;44.534;18.700;2023-04-06T09:41:26;10.70;1.00
25512;DHT22;13414;44.534;18.700;2023-04-06T09:44:02;10.60;1.00
25512;DHT22;13414;44.534;18.700;2023-04-06T09:46:31;10.60;1.00
25512;DHT22;13414;44.534;18.700;2023-04-06T09:49:00;10.50;99.90
25512;DHT22;13414;44.534;18.700;2023-04-06T09:51:31;10.80;99.90
25512;DHT22;13414;44.534;18.700;2023-04-06T09:53:59;11.00;99.90
25512;DHT22;13414;44.534;18.700;2023-04-06T09:56:33;10.90;99.90
25512;DHT22;13414;44.534;18.700;2023-04-06T09:59:09;10.70;99.90
25512;DHT22;13414;44.534;18.700;2023-04-06T10:01:40;10.60;1.00
25512;DHT22;13414;44.534;18.700;2023-04-06T10:04:16;10.30;1.00
25512;DHT22;13414;44.534;18.700;2023-04-06T10:06:46;10.40;1.00
25512;DHT22;13414;44.534;18.700;2023-04-06T10:09:18;10.40;1.00
25512;DHT22;13414;44.534;18.700;2023-04-06T10:11:50;10.50;1.00
25512;DHT22;13414;44.534;18.700;2023-04-06T10:14:18;10.50;1.00
25512;DHT22;13414;44.534;18.700;2023-04-06T10:16:48;10.60;1.00
25512;DHT22;13414;44.534;18.700;2023-04-06T10:19:25;10.40;1.00
25512;DHT22;13414;44.534;18.700;2023-04-06T10:21:55;10.60;1.00
25512;DHT22;13414;44.534;18.700;2023-04-06T10:24:25;10.50;1.00
25512;DHT22;13414;44.534;18.700;2023-04-06T10:26:58;10.60;1.00
25512;DHT22;13414;44.534;18.700;2023-04-06T10:29:28;10.70;99.90
25512;DHT22;13414;44.534;18.700;2023-04-06T10:31:55;10.80;99.90
25512;DHT22;13414;44.534;18.700;2023-04-06T10:34:23;11.10;1.00
25512;DHT22;13414;44.534;18.700;2023-04-06T10:37:11;11.10;1.00
25512;DHT22;13414;44.534;18.700;2023-04-06T10:39:46;11.10;1.00
25512;DHT22;13414;44.534;18.700;2023-04-06T10:42:16;11.20;99.90
25512;DHT22;13414;44.534;18.700;2023-04-06T10:44:43;11.20;99.90
25512;DHT22;13414;44.534;18.700;2023-04-06T10:47:18;11.50;1.00
25512;DHT22;13414;44.534;18.700;2023-04-06T10:49:45;11.60;1.00
25512;DHT22;13414;44.534;18.700;2023-04-06T10:52:13;11.60;1.00
25512;DHT22;13414;44.534;18.700;2023-04-06T10:54:42;11.50;1.00
25512;DHT22;13414;44.534;18.700;2023-04-06T10:57:10;11.30;1.00
25512;DHT22;13414;44.534;18.700;2023-04-06T10:59:45;11.00;1.00
25512;DHT22;13414;44.534;18.700;2023-04-06T11:02:19;11.00;1.00
25512;DHT22;13414;44.534;18.700;2023-04-06T11:04:58;11.20;1.00
25512;DHT22;13414;44.534;18.700;2023-04-06T11:07:26;11.20;1.00
25512;DHT22;13414;44.534;18.700;2023-04-06T11:09:56;11.10;1.00
25512;DHT22;13414;44.534;18.700;2023-04-06T11:12:24;11.00;1.00
25512;DHT22;13414;44.534;18.700;2023-04-06T11:14:57;10.90;99.90
25512;DHT22;13414;44.534;18.700;2023-04-06T11:17:30;10.90;1.00
25512;DHT22;13414;44.534;18.700;2023-04-06T11:19:58;11.20;1.00
25512;DHT22;13414;44.534;18.700;2023-04-06T11:22:26;11.20;1.00
25512;DHT22;13414;44.534;18.700;2023-04-06T11:25:03;11.20;1.00
25512;DHT22;13414;44.534;18.700;2023-04-06T11:27:31;11.20;99.90
25512;DHT22;13414;44.534;18.700;2023-04-06T11:30:01;11.20;1.00
25512;DHT22;13414;44.534;18.700;2023-04-06T11:32:28;11.10;1.00
25512;DHT22;13414;44.534;18.700;2023-04-06T11:34:58;11.10;1.00
25512;DHT22;13414;44.534;18.700;2023-04-06T11:37:26;11.30;1.00
25512;DHT22;13414;44.534;18.700;2023-04-06T11:39:55;11.10;99.90
25512;DHT22;13414;44.534;18.700;2023-04-06T11:42:23;11.00;55.90
25512;DHT22;13414;44.534;18.700;2023-04-06T11:44:53;11.00;99.90
25512;DHT22;13414;44.534;18.700;2023-04-06T11:47:27;10.90;1.00
25512;DHT22;13414;44.534;18.700;2023-04-06T11:49:56;10.90;20.20
25512;DHT22;13414;44.534;18.700;2023-04-06T11:52:32;10.90;99.90
25512;DHT22;13414;44.534;18.700;2023-04-06T11:55:10;11.00;1.00
25512;DHT22;13414;44.534;18.700;2023-04-06T11:57:38;11.20;1.00
25512;DHT22;13414;44.534;18.700;2023-04-06T12:00:07;11.40;1.00
25512;DHT22;13414;44.534;18.700;2023-04-06T12:02:36;11.50;99.90
25512;DHT22;13414;44.534;18.700;2023-04-06T12:05:05;11.50;1.00
25512;DHT22;13414;44.534;18.700;2023-04-06T12:07:33;11.40;1.00
25512;DHT22;13414;44.534;18.700;2023-04-06T12:10:01;11.60;38.10
25512;DHT22;13414;44.534;18.700;2023-04-06T12:12:29;11.60;1.00
25512;DHT22;13414;44.534;18.700;2023-04-06T12:14:57;11.50;99.90
25512;DHT22;13414;44.534;18.700;2023-04-06T12:17:24;11.40;45.70
25512;DHT22;13414;44.534;18.700;2023-04-06T12:19:53;11.40;1.00
25512;DHT22;13414;44.534;18.700;2023-04-06T12:22:21;11.30;1.00
25512;DHT22;13414;44.534;18.700;2023-04-06T12:24:48;11.20;99.90
25512;DHT22;13414;44.534;18.700;2023-04-06T12:27:16;10.90;93.70
25512;DHT22;13414;44.534;18.700;2023-04-06T12:29:43;10.70;1.00
25512;DHT22;13414;44.534;18.700;2023-04-06T12:32:11;10.50;78.50
25512;DHT22;13414;44.534;18.700;2023-04-06T12:34:38;10.40;1.00
25512;DHT22;13414;44.534;18.700;2023-04-06T12:37:08;10.50;43.30
25512;DHT22;13414;44.534;18.700;2023-04-06T12:39:35;10.50;1.00
25512;DHT22;13414;44.534;18.700;2023-04-06T12:42:02;10.60;1.90
25512;DHT22;13414;44.534;18.700;2023-04-06T12:44:30;10.60;1.00
25512;DHT22;13414;44.534;18.700;2023-04-06T12:46:58;10.70;99.90
25512;DHT22;13414;44.534;18.700;2023-04-06T12:49:26;10.70;1.00
25512;DHT22;13414;44.534;18.700;2023-04-06T12:51:53;10.90;1.00
25512;DHT22;13414;44.534;18.700;2023-04-06T12:54:22;11.00;99.90
25512;DHT22;13414;44.534;18.700;2023-04-06T12:56:52;11.10;99.90
25512;DHT22;13414;44.534;18.700;2023-04-06T12:59:20;11.10;99.90
25512;DHT22;13414;44.534;18.700;2023-04-06T13:01:47;11.00;99.90
25512;DHT22;13414;44.534;18.700;2023-04-06T13:04:15;11.00;99.90
25512;DHT22;13414;44.534;18.700;2023-04-06T13:06:43;10.90;1.00
25512;DHT22;13414;44.534;18.700;2023-04-06T13:09:10;10.70;99.90
25512;DHT22;13414;44.534;18.700;2023-04-06T13:11:40;10.90;99.90
25512;DHT22;13414;44.534;18.700;2023-04-06T13:14:10;10.80;1.00
25512;DHT22;13414;44.534;18.700;2023-04-06T13:16:41;10.70;99.90
25512;DHT22;13414;44.534;18.700;2023-04-06T13:19:08;10.90;99.90
25512;DHT22;13414;44.534;18.700;2023-04-06T13:21:36;11.00;99.90
25512;DHT22;13414;44.534;18.700;2023-04-06T13:24:04;11.10;1.00
25512;DHT22;13414;44.534;18.700;2023-04-06T13:26:34;11.20;1.00
25512;DHT22;13414;44.534;18.700;2023-04-06T13:29:03;11.20;1.00
25512;DHT22;13414;44.534;18.700;2023-04-06T13:31:30;11.30;1.00
25512;DHT22;13414;44.534;18.700;2023-04-06T13:33:58;11.20;1.00
25512;DHT22;13414;44.534;18.700;2023-04-06T13:36:25;11.10;99.90
25512;DHT22;13414;44.534;18.700;2023-04-06T13:38:53;10.90;1.00
25512;DHT22;13414;44.534;18.700;2023-04-06T13:41:23;10.80;36.00
25512;DHT22;13414;44.534;18.700;2023-04-06T13:43:51;10.80;1.00
25512;DHT22;13414;44.534;18.700;2023-04-06T13:46:20;11.00;1.00
25512;DHT22;13414;44.534;18.700;2023-04-06T13:48:49;11.10;1.00
25512;DHT22;13414;44.534;18.700;2023-04-06T13:51:17;11.20;99.90
25512;DHT22;13414;44.534;18.700;2023-04-06T13:53:44;11.40;1.00
25512;DHT22;13414;44.534;18.700;2023-04-06T13:56:11;11.60;99.90
25512;DHT22;13414;44.534;18.700;2023-04-06T13:58:39;11.70;1.00
25512;DHT22;13414;44.534;18.700;2023-04-06T14:01:07;11.60;1.00
25512;DHT22;13414;44.534;18.700;2023-04-06T14:03:39;11.50;1.00
25512;DHT22;13414;44.534;18.700;2023-04-06T14:06:11;11.50;1.00
25512;DHT22;13414;44.534;18.700;2023-04-06T14:08:40;11.60;99.90
25512;DHT22;13414;44.534;18.700;2023-04-06T14:11:12;11.70;83.50
25512;DHT22;13414;44.534;18.700;2023-04-06T14:13:40;11.80;1.00
25512;DHT22;13414;44.534;18.700;2023-04-06T14:16:10;11.50;1.00
25512;DHT22;13414;44.534;18.700;2023-04-06T14:18:40;11.60;1.00
25512;DHT22;13414;44.534;18.700;2023-04-06T14:21:09;11.60;1.00
25512;DHT22;13414;44.534;18.700;2023-04-06T14:23:38;11.60;1.00
25512;DHT22;13414;44.534;18.700;2023-04-06T14:26:07;11.60;99.90
25512;DHT22;13414;44.534;18.700;2023-04-06T14:28:35;11.40;99.90
25512;DHT22;13414;44.534;18.700;2023-04-06T14:31:10;11.20;1.00
25512;DHT22;13414;44.534;18.700;2023-04-06T14:33:40;11.30;1.00
25512;DHT22;13414;44.534;18.700;2023-04-06T14:36:08;11.40;1.00
25512;DHT22;13414;44.534;18.700;2023-04-06T14:38:36;11.40;1.00
25512;DHT22;13414;44.534;18.700;2023-04-06T14:41:04;11.40;1.00
25512;DHT22;13414;44.534;18.700;2023-04-06T14:43:32;11.60;1.00
25512;DHT22;13414;44.534;18.700;2023-04-06T14:46:01;11.60;1.00
25512;DHT22;13414;44.534;18.700;2023-04-06T14:50:57;11.70;1.00
25512;DHT22;13414;44.534;18.700;2023-04-06T14:53:26;11.80;1.00
25512;DHT22;13414;44.534;18.700;2023-04-06T14:55:55;11.90;1.00
25512;DHT22;13414;44.534;18.700;2023-04-06T14:58:24;12.10;99.90
25512;DHT22;13414;44.534;18.700;2023-04-06T15:00:55;12.10;1.00
25512;DHT22;13414;44.534;18.700;2023-04-06T15:03:23;12.20;33.40
25512;DHT22;13414;44.534;18.700;2023-04-06T15:05:52;12.20;99.90
25512;DHT22;13414;44.534;18.700;2023-04-06T15:08:21;12.00;1.00
25512;DHT22;13414;44.534;18.700;2023-04-06T15:10:50;11.80;1.00
25512;DHT22;13414;44.534;18.700;2023-04-06T15:13:18;11.70;1.00
25512;DHT22;13414;44.534;18.700;2023-04-06T15:15:45;11.60;1.00
25512;DHT22;13414;44.534;18.700;2023-04-06T15:18:13;11.50;1.00
25512;DHT22;13414;44.534;18.700;2023-04-06T15:20:41;11.40;1.00
25512;DHT22;13414;44.534;18.700;2023-04-06T15:23:09;11.30;99.90
25512;DHT22;13414;44.534;18.700;2023-04-06T15:25:38;11.20;99.90
25512;DHT22;13414;44.534;18.700;2023-04-06T15:28:07;11.00;1.00
25512;DHT22;13414;44.534;18.700;2023-04-06T15:30:35;11.00;1.00
25512;DHT22;13414;44.534;18.700;2023-04-06T15:33:04;10.90;1.00
25512;DHT22;13414;44.534;18.700;2023-04-06T15:35:32;10.70;99.90
25512;DHT22;13414;44.534;18.700;2023-04-06T15:38:05;10.80;1.00
25512;DHT22;13414;44.534;18.700;2023-04-06T15:40:32;10.80;1.00
25512;DHT22;13414;44.534;18.700;2023-04-06T15:43:01;10.90;1.00
25512;DHT22;13414;44.534;18.700;2023-04-06T15:45:29;10.90;1.00
25512;DHT22;13414;44.534;18.700;2023-04-06T15:47:56;10.90;56.20
25512;DHT22;13414;44.534;18.700;2023-04-06T15:50:23;10.80;99.90
25512;DHT22;13414;44.534;18.700;2023-04-06T15:52:51;10.70;1.00